Syria, Indiana
Current Conditions -  °F | °C
As of 8:18 AM on Saturday 25 Oct 2014 (Local Time) from KBMG Reporting Station
Haze Haze  
Wind Chill: 58°   Ceiling: 3800
Heat Index: 58°   Visibility: 4mi
Dew Point: 53°   Wind: 7mph
Humidity: 84%   Direction: 250°WSW
Pressure: 29.99"   Gusts: NA
Location:  38.6433°N, 86.4481°W
Report Text: KBMG 251218Z 25006KT 4SM HZ SCT027 BKN038 14/12 A2999 RMK AO2 T01440117
Loading
Personal Weather Stations






























Interactive Weather Map
Tropical Storm Tracking
New forecast layout! Learn more

10-Day Weather Forecast

Advertisements
Track Severe Weather on mobile